Time;durP1;ratioP1;P1;durP2;ratioP2;P2;SDS_P1;SDS_P2;PMS_P1;PMS_P2;Temp;Humidity;BMP_temperature;BMP_pressure;BME280_temperature;BME280_humidity;BME280_pressure;Samples;Min_cycle;Max_cycle;Signal;HPM_P1;HPM_P2
2022/04/11 00:00:39;;;;;;;0.30;0.30;;;1.90;99.90;;;1.48;100.00;100959.44;4976370;28;20213;-76
2022/04/11 00:03:07;;;;;;;0.30;0.30;;;;;;;1.41;100.00;100959.03;4983566;28;20220;-75
2022/04/11 00:05:36;;;;;;;0.30;0.30;;;1.90;99.90;;;1.60;100.00;100967.03;4984644;28;20569;-75
2022/04/11 00:08:04;;;;;;;0.30;0.30;;;2.00;99.90;;;1.85;100.00;100980.53;4975088;28;20244;-75
2022/04/11 00:10:32;;;;;;;0.30;0.30;;;2.00;99.90;;;1.81;100.00;100975.09;4995848;28;20208;-75
2022/04/11 00:13:07;;;;;;;0.30;0.30;;;2.10;99.90;;;1.84;100.00;100978.75;4992182;28;20216;-75
2022/04/11 00:15:39;;;;;;;0.20;0.20;;;;;;;1.78;100.00;100962.78;4985512;28;20215;-75
2022/04/11 00:18:08;;;;;;;0.30;0.30;;;2.10;99.90;;;1.65;100.00;100946.41;5009604;28;20228;-76
2022/04/11 00:20:36;;;;;;;0.30;0.30;;;2.10;99.90;;;1.64;100.00;100947.22;4979101;28;20211;-76
2022/04/11 00:23:06;;;;;;;0.32;0.32;;;2.00;99.90;;;1.55;100.00;100943.31;4982864;28;20231;-76
2022/04/11 00:25:34;;;;;;;0.30;0.30;;;2.00;99.90;;;1.58;100.00;100946.09;4986122;28;20216;-76
2022/04/11 00:28:02;;;;;;;0.30;0.30;;;2.00;99.90;;;1.57;100.00;100946.00;4991124;28;20241;-76
2022/04/11 00:30:30;;;;;;;0.30;0.30;;;2.00;99.90;;;1.64;100.00;100955.03;4983251;28;20205;-75
2022/04/11 00:32:58;;;;;;;0.30;0.30;;;2.00;99.90;;;1.54;100.00;100949.34;4975974;28;20238;-75
2022/04/11 00:35:27;;;;;;;0.30;0.30;;;1.90;99.90;;;1.48;100.00;100943.81;4980195;28;20231;-76
2022/04/11 00:37:55;;;;;;;0.20;0.20;;;2.10;99.90;;;1.53;100.00;100952.78;4967304;28;20233;-76
2022/04/11 00:40:23;;;;;;;0.30;0.30;;;1.90;99.90;;;1.58;100.00;100963.44;4987393;28;20209;-76
2022/04/11 00:42:51;;;;;;;0.30;0.30;;;1.90;99.90;;;1.49;100.00;100963.84;4974419;28;20205;-76
2022/04/11 00:45:20;;;;;;;0.30;0.30;;;;;;;1.49;100.00;100970.78;4985077;28;20216;-75
2022/04/11 00:47:49;;;;;;;0.30;0.30;;;1.90;99.90;;;1.53;100.00;100986.66;4973811;28;20237;-75
2022/04/11 00:50:17;;;;;;;0.25;0.25;;;1.90;99.90;;;1.55;100.00;100981.53;4984469;28;20209;-75
2022/04/11 00:52:53;;;;;;;0.30;0.30;;;2.00;99.90;;;1.64;100.00;100987.22;4952135;28;20201;-75
2022/04/11 00:55:23;;;;;;;0.30;0.30;;;2.00;99.90;;;1.87;100.00;101001.47;4949704;28;20201;-75
2022/04/11 00:57:51;;;;;;;0.30;0.30;;;2.00;99.90;;;1.85;100.00;100979.66;5001193;28;20236;-75
2022/04/11 01:00:20;;;;;;;0.30;0.30;;;2.10;99.90;;;1.86;100.00;100969.28;4986782;28;20216;-75
2022/04/11 01:02:49;;;;;;;0.30;0.30;;;2.10;99.90;;;1.84;100.00;100960.50;4986805;28;20216;-75
2022/04/11 01:05:17;;;;;;;0.30;0.30;;;;;;;1.70;100.00;100964.09;4966988;28;20205;-76
2022/04/11 01:07:46;;;;;;;0.30;0.30;;;;;;;1.68;100.00;100957.00;4977553;28;20228;-76
2022/04/11 01:10:14;;;;;;;0.30;0.30;;;2.00;99.90;;;1.81;100.00;100973.38;4989109;28;20216;-76
2022/04/11 01:12:43;;;;;;;0.20;0.20;;;2.00;99.90;;;1.67;100.00;100963.03;4992533;28;20662;-77
2022/04/11 01:15:13;;;;;;;0.40;0.40;;;2.10;99.90;;;1.68;100.00;100967.44;4962268;28;20209;-74
2022/04/11 01:17:42;;;;;;;0.30;0.30;;;2.00;99.90;;;1.81;100.00;100972.47;4971181;28;20236;-77
2022/04/11 01:20:16;;;;;;;0.30;0.30;;;2.10;99.90;;;1.83;100.00;100973.44;4965225;28;20213;-76
2022/04/11 01:22:44;;;;;;;0.30;0.30;;;2.10;99.90;;;1.72;100.00;100964.16;4965398;28;20215;-77
2022/04/11 01:25:20;;;;;;;0.25;0.25;;;2.10;99.90;;;1.69;100.00;100977.94;4981170;28;20208;-75
2022/04/11 01:27:50;;;;;;;0.30;0.30;;;2.10;99.90;;;1.64;100.00;100984.63;4965416;28;20228;-75
2022/04/11 01:30:18;;;;;;;0.30;0.30;;;2.10;99.90;;;1.57;100.00;100983.41;4977175;28;20224;-76
2022/04/11 01:32:49;;;;;;;0.30;0.30;;;2.00;99.90;;;1.58;100.00;100982.59;4973635;28;20212;-76
2022/04/11 01:35:26;;;;;;;0.30;0.30;;;2.00;99.90;;;1.55;100.00;100990.25;4979128;28;20209;-76
2022/04/11 01:38:03;;;;;;;0.30;0.30;;;;;;;1.58;100.00;100993.00;4951867;28;20251;-76
2022/04/11 01:40:31;;;;;;;0.30;0.30;;;2.00;99.90;;;1.58;100.00;100981.69;4975482;28;20204;-75
2022/04/11 01:42:59;;;;;;;0.30;0.30;;;2.10;99.90;;;1.64;100.00;100991.53;4970172;28;20216;-76
2022/04/11 01:45:29;;;;;;;0.20;0.20;;;;;;;1.54;100.00;100988.44;4985585;28;20216;-76
2022/04/11 01:47:58;;;;;;;0.20;0.20;;;2.00;99.90;;;1.54;100.00;101005.78;4970543;28;20227;-76
2022/04/11 01:50:26;;;;;;;0.30;0.30;;;;;;;1.62;100.00;101003.59;4986039;28;20205;-76
2022/04/11 01:52:55;;;;;;;0.30;0.30;;;;;;;1.73;100.00;101016.41;4984470;28;20223;-75
2022/04/11 01:55:23;;;;;;;0.20;0.20;;;2.00;99.90;;;1.80;100.00;101020.22;4977033;28;20241;-75
2022/04/11 01:57:51;;;;;;;0.30;0.30;;;;;;;1.74;100.00;101017.28;4977752;28;20247;-76
2022/04/11 02:00:20;;;;;;;0.30;0.30;;;;;;;1.74;100.00;101012.09;4983989;28;20209;-76
2022/04/11 02:02:48;;;;;;;0.30;0.30;;;;;;;1.53;100.00;100998.78;4983068;28;20200;-76
2022/04/11 02:05:16;;;;;;;0.30;0.30;;;2.10;99.90;;;1.65;100.00;101003.78;4973217;28;20209;-76
2022/04/11 02:07:46;;;;;;;0.30;0.30;;;;;;;1.73;100.00;101019.00;4961533;28;20228;-75
2022/04/11 02:10:14;;;;;;;0.20;0.20;;;2.00;99.90;;;1.75;100.00;101019.97;4977391;28;20564;-77
2022/04/11 02:12:44;;;;;;;0.30;0.30;;;;;;;1.83;100.00;101023.91;4980404;28;20208;-76
2022/04/11 02:15:12;;;;;;;0.30;0.30;;;;;;;1.82;100.00;101022.09;4982957;28;20203;-76
2022/04/11 02:17:41;;;;;;;0.30;0.30;;;2.10;99.90;;;1.76;100.00;101013.06;4974364;28;20243;-76
2022/04/11 02:20:11;;;;;;;0.30;0.30;;;2.00;99.90;;;1.75;100.00;101004.34;4937617;28;20673;-75
2022/04/11 02:22:47;;;;;;;0.30;0.30;;;2.10;99.90;;;1.80;100.00;101008.09;4990873;28;20216;-75
2022/04/11 02:25:17;;;;;;;0.20;0.20;;;2.10;99.90;;;1.84;100.00;101012.66;4966594;28;20205;-75
2022/04/11 02:27:46;;;;;;;0.30;0.30;;;2.10;99.90;;;1.83;100.00;101007.34;4991544;28;20237;-76
2022/04/11 02:30:15;;;;;;;0.25;0.25;;;2.10;99.90;;;1.93;100.00;101007.03;4989309;28;20209;-76
2022/04/11 02:32:44;;;;;;;0.22;0.22;;;2.20;99.90;;;1.87;100.00;100991.94;4971641;28;20666;-76
2022/04/11 02:35:12;;;;;;;0.30;0.30;;;2.10;99.90;;;1.74;100.00;100994.72;4982512;28;20227;-75
2022/04/11 02:37:42;;;;;;;0.30;0.30;;;2.10;99.90;;;1.82;100.00;101016.00;4981607;28;20239;-75
2022/04/11 02:40:15;;;;;;;0.30;0.30;;;2.10;99.90;;;1.85;100.00;101013.53;4970003;28;20212;-75
2022/04/11 02:43:03;;;;;;;0.22;0.22;;;2.20;99.90;;;1.95;100.00;101017.53;4985737;28;20286;-75
2022/04/11 02:45:33;;;;;;;0.30;0.30;;;2.20;99.90;;;2.03;100.00;101021.44;4973765;28;20209;-78
2022/04/11 02:48:07;;;;;;;0.30;0.30;;;2.30;99.90;;;2.04;100.00;101011.09;4962708;28;20252;-75
2022/04/11 02:50:45;;;;;;;0.30;0.30;;;2.40;99.90;;;1.96;100.00;101003.69;4982665;28;20217;-75
2022/04/11 02:53:16;;;;;;;0.30;0.30;;;2.30;99.90;;;1.88;100.00;101003.28;4968342;28;20217;-76
2022/04/11 02:55:45;;;;;;;0.20;0.20;;;;;;;1.83;100.00;101000.44;4968864;28;20209;-76
2022/04/11 02:58:16;;;;;;;0.25;0.25;;;;;;;2.10;100.00;101021.84;4969787;28;20241;-75
2022/04/11 03:00:46;;;;;;;0.30;0.30;;;2.30;99.90;;;2.03;100.00;101003.19;4968459;28;20665;-75
2022/04/11 03:03:14;;;;;;;0.30;0.30;;;;;;;1.98;100.00;101004.66;4971906;28;20323;-75
2022/04/11 03:05:44;;;;;;;0.30;0.30;;;2.20;99.90;;;2.03;100.00;101001.47;4966057;28;20672;-75
2022/04/11 03:08:12;;;;;;;0.40;0.40;;;2.40;99.90;;;2.09;100.00;100995.66;4985262;28;20244;-75
2022/04/11 03:10:41;;;;;;;0.30;0.30;;;2.30;99.90;;;1.98;100.00;100983.78;4990853;28;20223;-75
2022/04/11 03:13:10;;;;;;;0.20;0.20;;;;;;;1.97;100.00;100992.44;4985228;28;20599;-75
2022/04/11 03:15:38;;;;;;;1.60;1.60;;;;;;;2.07;100.00;100995.59;4967979;28;20204;-75
2022/04/11 03:18:07;;;;;;;0.30;0.30;;;2.30;99.90;;;2.16;100.00;100992.56;4973882;28;20248;-75
2022/04/11 03:20:38;;;;;;;0.30;0.30;;;;;;;2.06;100.00;100979.88;4976198;28;20209;-75
2022/04/11 03:23:08;;;;;;;0.30;0.30;;;;;;;2.09;100.00;100980.03;4985703;28;20228;-75
2022/04/11 03:25:40;;;;;;;0.30;0.30;;;;;;;2.23;100.00;100995.56;4976877;28;20201;-75
2022/04/11 03:28:13;;;;;;;0.30;0.30;;;2.30;99.90;;;2.11;100.00;100971.44;4968615;28;20244;-75
2022/04/11 03:30:41;;;;;;;0.30;0.30;;;2.40;99.90;;;2.05;100.00;100967.63;4974602;28;20216;-75
2022/04/11 03:33:11;;;;;;;0.30;0.30;;;2.50;99.90;;;2.07;100.00;100958.16;4969656;28;20217;-75
2022/04/11 03:35:40;;;;;;;0.30;0.30;;;2.50;99.90;;;2.05;100.00;100962.41;4984204;28;20213;-74
2022/04/11 03:38:08;;;;;;;0.20;0.20;;;2.50;99.90;;;2.00;100.00;100951.75;4985527;28;20236;-75
2022/04/11 03:40:37;;;;;;;0.30;0.30;;;2.40;99.90;;;2.00;100.00;100964.78;4974655;28;20204;-76
2022/04/11 03:43:12;;;;;;;0.32;0.32;;;;;;;1.97;100.00;100959.41;5088855;23;20195;-76
2022/04/11 03:45:42;;;;;;;0.30;0.30;;;2.30;99.90;;;1.99;100.00;100967.31;5006950;28;20219;-75
2022/04/11 03:48:11;;;;;;;0.30;0.30;;;2.40;99.90;;;2.02;100.00;100967.47;5001917;28;20226;-75
2022/04/11 03:50:40;;;;;;;0.30;0.30;;;;;;;2.08;100.00;100970.41;5025397;28;20214;-77
2022/04/11 03:53:09;;;;;;;0.30;0.30;;;;;;;2.03;100.00;100964.94;5033568;28;20209;-75
2022/04/11 03:55:40;;;;;;;0.30;0.30;;;2.20;99.90;;;1.98;100.00;100947.28;5025751;28;20204;-75
2022/04/11 03:58:11;;;;;;;0.30;0.30;;;2.30;99.90;;;2.02;100.00;100944.91;5040216;28;20218;-74
2022/04/11 04:00:42;;;;;;;0.20;0.20;;;2.50;99.90;;;1.88;100.00;100930.25;5021381;28;20199;-72
2022/04/11 04:03:37;;;;;;;0.20;0.20;;;2.30;99.90;;;1.97;100.00;100930.72;5041158;28;20203;-73
2022/04/11 04:06:11;;;;;;;0.30;0.30;;;2.20;99.90;;;1.78;100.00;100920.16;5039312;28;20222;-75
2022/04/11 04:08:43;;;;;;;0.20;0.20;;;2.20;99.90;;;1.80;100.00;100928.97;5039373;28;20231;-74
2022/04/11 04:11:14;;;;;;;0.30;0.30;;;2.10;99.90;;;1.86;100.00;100931.88;5027607;28;20206;-73
2022/04/11 04:13:49;;;;;;;0.30;0.30;;;;;;;1.85;100.00;100930.09;5027307;28;20212;-75
2022/04/11 04:16:18;;;;;;;0.30;0.30;;;;;;;1.79;100.00;100919.34;5008784;28;20579;-76
2022/04/11 04:18:54;;;;;;;0.30;0.30;;;;;;;1.64;100.00;100913.34;5029458;28;20233;-78
2022/04/11 04:21:22;;;;;;;0.30;0.30;;;2.00;99.90;;;1.60;100.00;100907.97;5037416;28;20198;-77
2022/04/11 04:23:50;;;;;;;0.35;0.35;;;1.90;99.90;;;1.57;100.00;100915.63;5026661;28;20210;-77
2022/04/11 04:26:23;;;;;;;0.30;0.30;;;;;;;1.50;100.00;100902.19;5025290;28;20225;-75
2022/04/11 04:28:52;;;;;;;0.30;0.30;;;;;;;1.47;100.00;100917.66;5036546;28;20227;-75
2022/04/11 04:31:24;;;;;;;0.30;0.30;;;1.80;99.90;;;1.70;100.00;100934.50;5030053;28;20210;-73
2022/04/11 04:33:52;;;;;;;0.20;0.20;;;1.90;99.90;;;1.46;100.00;100903.75;5020573;28;20207;-74
2022/04/11 04:36:21;;;;;;;0.30;0.30;;;;;;;1.35;100.00;100894.47;5020013;28;20211;-78
2022/04/11 04:38:50;;;;;;;0.40;0.40;;;;;;;1.20;100.00;100896.22;5021541;28;20321;-74
2022/04/11 04:41:18;;;;;;;0.30;0.30;;;;;;;1.21;100.00;100908.44;5031926;28;20203;-76
2022/04/11 04:43:46;;;;;;;0.20;0.20;;;1.60;99.90;;;1.23;100.00;100901.59;5027135;28;20213;-74
2022/04/11 04:46:15;;;;;;;0.30;0.30;;;;;;;1.05;100.00;100893.69;5024787;28;20206;-75
2022/04/11 04:48:52;;;;;;;0.30;0.30;;;1.50;99.90;;;1.06;100.00;100907.59;5021631;28;20219;-74
2022/04/11 04:51:23;;;;;;;0.85;0.85;;;1.50;99.90;;;1.36;100.00;100934.44;5016696;28;20226;-74
2022/04/11 04:53:57;;;;;;;1.17;0.93;;;;;;;1.21;100.00;100924.94;5020950;28;20199;-75
2022/04/11 04:56:29;;;;;;;0.30;0.30;;;1.60;99.90;;;1.40;100.00;100942.50;5033114;28;20195;-75
2022/04/11 04:59:00;;;;;;;0.40;0.40;;;1.60;99.90;;;1.35;100.00;100924.84;5034227;28;20234;-74
2022/04/11 05:01:28;;;;;;;0.30;0.30;;;1.40;99.90;;;1.06;100.00;100900.69;5020588;28;20199;-75
2022/04/11 05:03:57;;;;;;;0.20;0.20;;;1.50;99.90;;;1.13;100.00;100914.94;5048722;28;20213;-75
2022/04/11 05:06:30;;;;;;;0.30;0.30;;;1.60;99.90;;;1.18;100.00;100921.28;5035408;28;20560;-75
2022/04/11 05:09:00;;;;;;;0.30;0.30;;;1.60;99.90;;;1.16;100.00;100922.91;5025820;28;20230;-74
2022/04/11 05:11:30;;;;;;;0.30;0.30;;;;;;;1.17;100.00;100930.81;5002607;28;20200;-76
2022/04/11 05:13:58;;;;;;;0.30;0.30;;;;;;;1.39;100.00;100945.94;5025819;28;20215;-75
2022/04/11 05:16:31;;;;;;;0.30;0.30;;;;;;;1.36;100.00;100939.66;5031455;28;20209;-77
2022/04/11 05:19:02;;;;;;;0.25;0.25;;;;;;;1.43;100.00;100949.59;5031646;28;20234;-77
2022/04/11 05:21:31;;;;;;;0.30;0.30;;;1.60;99.90;;;1.36;100.00;100945.75;5030610;28;20203;-74
2022/04/11 05:24:04;;;;;;;0.30;0.30;;;1.60;99.90;;;1.21;100.00;100927.56;5028299;28;20218;-76
2022/04/11 05:26:33;;;;;;;0.30;0.30;;;;;;;1.16;100.00;100920.31;5021192;28;20222;-76
2022/04/11 05:29:03;;;;;;;0.20;0.20;;;1.50;99.90;;;1.11;100.00;100929.59;5018714;28;20219;-75
2022/04/11 05:31:32;;;;;;;0.30;0.30;;;;;;;1.09;100.00;100939.91;5009134;28;20213;-75
2022/04/11 05:34:01;;;;;;;0.30;0.30;;;;;;;1.45;100.00;100980.13;5015165;28;20211;-76
2022/04/11 05:36:29;;;;;;;0.30;0.30;;;1.50;99.90;;;1.60;100.00;100991.38;5030517;28;20209;-76
2022/04/11 05:38:58;;;;;;;0.40;0.40;;;;;;;1.58;100.00;100986.91;5045281;28;20214;-75
2022/04/11 05:41:27;;;;;;;0.20;0.20;;;1.60;99.90;;;1.66;100.00;100998.63;5020354;28;20210;-76
2022/04/11 05:43:55;;;;;;;0.20;0.20;;;;;;;1.71;100.00;101005.00;5048903;28;20225;-78
2022/04/11 05:46:29;;;;;;;0.30;0.30;;;;;;;1.76;100.00;100995.69;5020618;28;20209;-80
2022/04/11 05:49:05;;;;;;;0.30;0.30;;;1.90;99.90;;;1.79;100.00;100990.66;5026458;28;20725;-75
2022/04/11 05:51:34;;;;;;;0.30;0.30;;;;;;;1.77;100.00;100980.94;5030690;28;20227;-75
2022/04/11 05:54:02;;;;;;;0.20;0.20;;;1.90;99.90;;;1.80;100.00;100983.72;5028657;28;20203;-74
2022/04/11 05:56:32;;;;;;;0.30;0.30;;;2.00;99.90;;;1.92;100.00;100987.88;5015551;28;20207;-74
2022/04/11 05:59:04;;;;;;;0.30;0.30;;;;;;;1.97;100.00;100985.50;5032293;28;20239;-75
2022/04/11 06:01:32;;;;;;;0.30;0.30;;;2.20;99.90;;;2.09;100.00;100995.66;5019136;28;20203;-74
2022/04/11 06:04:01;;;;;;;0.20;0.20;;;2.20;99.90;;;2.05;100.00;100984.19;5014037;28;20222;-73
2022/04/11 06:06:31;;;;;;;0.30;0.30;;;2.20;99.90;;;2.19;100.00;101000.53;5014258;28;20211;-76
2022/04/11 06:08:59;;;;;;;0.30;0.30;;;2.20;99.90;;;2.29;100.00;101004.53;5030055;28;20614;-73
2022/04/11 06:11:29;;;;;;;0.30;0.30;;;;;;;2.36;100.00;101001.41;5012628;28;20207;-77
2022/04/11 06:13:57;;;;;;;0.30;0.30;;;2.40;99.90;;;2.41;100.00;100990.38;5029053;28;20203;-74
2022/04/11 06:16:26;;;;;;;0.30;0.30;;;;;;;2.51;100.00;100989.13;5030883;28;20211;-78
2022/04/11 06:18:54;;;;;;;0.30;0.30;;;2.50;99.90;;;2.56;100.00;100985.03;5014992;28;20230;-74
2022/04/11 06:21:23;;;;;;;0.28;0.28;;;2.50;99.90;;;2.74;100.00;100985.06;5040448;28;20218;-74
2022/04/11 06:23:52;;;;;;;0.20;0.20;;;;;;;2.92;100.00;100985.06;5025040;28;20211;-77
2022/04/11 06:26:22;;;;;;;0.20;0.20;;;2.80;99.90;;;2.77;100.00;100952.16;5026556;28;20195;-74
2022/04/11 06:28:51;;;;;;;0.30;0.30;;;2.60;99.90;;;2.91;100.00;100963.28;5012183;28;20231;-73
2022/04/11 06:31:20;;;;;;;0.30;0.30;;;;;;;2.99;100.00;100961.03;5028218;28;20207;-76
2022/04/11 06:33:55;;;;;;;0.30;0.30;;;2.90;99.90;;;2.99;100.00;100954.09;5043065;28;20559;-73
2022/04/11 06:36:26;;;;;;;0.30;0.30;;;;;;;3.12;100.00;100960.78;5011926;28;20203;-75
2022/04/11 06:38:55;;;;;;;1.15;1.15;;;3.00;99.90;;;3.24;100.00;100932.59;5005876;28;20718;-73
2022/04/11 06:41:31;;;;;;;0.20;0.20;;;3.10;99.90;;;3.30;100.00;100932.88;5012133;28;20207;-74
2022/04/11 06:44:00;;;;;;;0.20;0.20;;;;;;;3.32;100.00;100919.88;5039431;28;20203;-73
2022/04/11 06:46:48;;;;;;;0.20;0.20;;;;;;;3.61;100.00;100910.75;5023178;28;20209;-77
2022/04/11 06:49:17;;;;;;;1.05;1.05;;;3.30;99.90;;;3.63;100.00;100894.28;5027410;28;20214;-74
2022/04/11 06:51:46;;;;;;;0.30;0.30;;;;;;;3.73;100.00;100906.03;5026055;28;20206;-76
2022/04/11 06:54:13;;;;;;;0.20;0.20;;;3.50;99.90;;;3.93;100.00;100906.94;5050651;28;20229;-75
2022/04/11 06:56:42;;;;;;;0.30;0.30;;;;;;;4.12;100.00;100912.13;5038013;28;20214;-75
2022/04/11 06:59:10;;;;;;;0.20;0.20;;;;;;;4.27;100.00;100909.28;5039144;28;20228;-76
2022/04/11 07:01:38;;;;;;;0.20;0.20;;;3.90;99.90;;;4.07;100.00;100882.25;5031576;28;20195;-75
2022/04/11 07:04:06;;;;;;;0.20;0.20;;;3.90;99.90;;;4.23;100.00;100891.63;5039770;28;20218;-75
2022/04/11 07:06:34;;;;;;;0.20;0.20;;;4.10;99.90;;;4.43;100.00;100903.84;5045475;28;20207;-75
2022/04/11 07:09:03;;;;;;;0.20;0.20;;;;;;;4.54;100.00;100902.53;5044703;28;20238;-74
2022/04/11 07:11:32;;;;;;;0.20;0.20;;;4.30;99.90;;;4.57;100.00;100886.06;5044751;28;20199;-73
2022/04/11 07:14:00;;;;;;;0.20;0.20;;;4.40;99.90;;;4.65;100.00;100885.53;5045135;28;20211;-74
2022/04/11 07:16:28;;;;;;;0.20;0.20;;;4.50;99.90;;;4.90;100.00;100900.50;5042177;28;20218;-74
2022/04/11 07:18:57;;;;;;;0.20;0.20;;;;;;;4.84;100.00;100874.03;5038809;28;20223;-73
2022/04/11 07:21:25;;;;;;;0.20;0.20;;;4.70;99.90;;;4.92;100.00;100858.63;5032706;28;20234;-73
2022/04/11 07:23:53;;;;;;;0.20;0.20;;;4.80;99.90;;;5.05;100.00;100871.34;5048515;28;20206;-74
2022/04/11 07:26:21;;;;;;;0.20;0.20;;;;;;;5.14;100.00;100883.09;5037147;28;20210;-74
2022/04/11 07:28:50;;;;;;;0.20;0.20;;;4.90;99.90;;;5.21;100.00;100894.72;5038061;28;20227;-74
2022/04/11 07:31:18;;;;;;;0.20;0.20;;;5.10;99.90;;;5.40;100.00;100897.19;5048203;28;20693;-74
2022/04/11 07:33:49;;;;;;;0.40;0.40;;;;;;;5.54;100.00;100873.22;5017744;28;20200;-73
2022/04/11 07:36:17;;;;;;;0.20;0.20;;;5.30;99.90;;;5.69;100.00;100879.00;5020699;28;20203;-74
2022/04/11 07:38:45;;;;;;;0.20;0.20;;;5.40;99.90;;;5.73;100.00;100863.41;5049287;28;20575;-75
2022/04/11 07:41:13;;;;;;;0.20;0.20;;;5.50;99.90;;;5.86;100.00;100866.47;5046677;28;20733;-76
2022/04/11 07:43:41;;;;;;;0.40;0.40;;;5.60;99.90;;;5.91;100.00;100844.81;5027137;28;20208;-74
2022/04/11 07:46:11;;;;;;;0.20;0.20;;;5.70;99.90;;;6.06;100.00;100831.31;5041084;28;20215;-74
2022/04/11 07:48:39;;;;;;;0.20;0.20;;;5.90;99.90;;;6.26;100.00;100821.47;5045665;28;20226;-74
2022/04/11 07:51:09;;;;;;;0.20;0.20;;;;;;;6.31;100.00;100807.66;5039492;28;20218;-74
2022/04/11 07:53:38;;;;;;;0.20;0.20;;;6.10;99.90;;;6.32;100.00;100791.03;5031539;28;20203;-74
2022/04/11 07:56:06;;;;;;;0.20;0.20;;;;;;;6.46;100.00;100786.22;5043065;28;20207;-74
2022/04/11 07:58:34;;;;;;;0.20;0.20;;;;;;;6.51;100.00;100773.25;5028340;28;20222;-75
2022/04/11 08:01:02;;;;;;;0.20;0.20;;;6.40;99.90;;;6.86;100.00;100809.38;5024616;28;20679;-77
2022/04/11 08:03:32;;;;;;;0.20;0.20;;;;;;;6.89;100.00;100785.81;5037424;28;20214;-74
2022/04/11 08:06:00;;;;;;;0.20;0.20;;;;;;;7.27;100.00;100779.00;5041300;28;20208;-74
2022/04/11 08:08:28;;;;;;;0.20;0.20;;;7.00;99.90;;;7.43;100.00;100758.38;5048054;28;20253;-75
2022/04/11 08:10:57;;;;;;;0.20;0.20;;;;;;;7.46;100.00;100729.50;5037506;28;20210;-76
2022/04/11 08:13:25;;;;;;;0.20;0.20;;;7.20;99.90;;;7.70;100.00;100730.16;5043098;28;20210;-77
2022/04/11 08:15:53;;;;;;;0.20;0.20;;;7.40;99.90;;;7.80;100.00;100723.38;5039181;28;20233;-75
2022/04/11 08:18:22;;;;;;;0.65;0.65;;;7.60;99.90;;;7.88;100.00;100688.50;5036358;28;20234;-75
2022/04/11 08:20:50;;;;;;;0.10;0.10;;;;;;;7.87;100.00;100694.63;5044869;28;20234;-75
2022/04/11 08:23:19;;;;;;;0.20;0.20;;;7.70;99.90;;;8.02;100.00;100697.63;5036768;28;20223;-75
2022/04/11 08:25:52;;;;;;;0.20;0.20;;;7.90;99.90;;;8.22;100.00;100710.34;5043319;28;20218;-74
2022/04/11 08:28:21;;;;;;;0.10;0.10;;;8.10;99.90;;;8.53;100.00;100717.22;5017086;28;20233;-75
2022/04/11 08:30:49;;;;;;;0.45;0.45;;;;;;;8.57;97.39;100663.72;5033823;28;20215;-76
2022/04/11 08:33:17;;;;;;;0.75;0.75;;;8.50;99.90;;;8.59;97.77;100640.91;5036098;28;20214;-74
2022/04/11 08:35:45;;;;;;;0.20;0.20;;;8.50;99.90;;;8.55;98.25;100641.72;5034361;28;20211;-75
2022/04/11 08:38:13;;;;;;;0.10;0.10;;;8.50;99.90;;;8.50;96.62;100617.91;5023769;28;20582;-74
2022/04/11 08:40:42;;;;;;;0.20;0.20;;;8.50;99.90;;;8.52;95.33;100597.72;5021246;28;20231;-74
2022/04/11 08:43:11;;;;;;;0.10;0.10;;;8.60;99.90;;;8.89;93.41;100606.34;5032516;28;20205;-75
2022/04/11 08:45:42;;;;;;;0.20;0.20;;;8.70;99.90;;;8.74;93.37;100574.41;5031528;28;20202;-76
2022/04/11 08:48:11;;;;;;;0.10;0.10;;;9.00;99.90;;;9.04;91.56;100577.59;5033066;28;20238;-74
2022/04/11 08:50:40;;;;;;;0.10;0.10;;;9.30;99.90;;;9.29;91.48;100560.47;5040400;28;20210;-75
2022/04/11 08:53:08;;;;;;;0.20;0.20;;;9.50;99.90;;;9.55;92.65;100596.06;5026054;28;20246;-75
2022/04/11 08:55:36;;;;;;;0.20;0.20;;;9.70;99.90;;;9.72;91.34;100577.84;5029230;28;20658;-74
2022/04/11 08:58:05;;;;;;;0.20;0.20;;;;;;;9.67;89.08;100542.56;5037977;28;20223;-74
2022/04/11 09:00:33;;;;;;;0.20;0.20;;;9.80;99.90;;;9.84;89.57;100535.75;5030134;28;20226;-75
2022/04/11 09:03:00;;;;;;;0.10;0.10;;;10.00;99.90;;;9.82;88.79;100516.38;5038784;28;20200;-75
2022/04/11 09:05:29;;;;;;;0.10;0.10;;;;;;;10.17;88.70;100542.34;5030993;28;20203;-74
2022/04/11 09:07:59;;;;;;;0.20;0.20;;;10.30;99.90;;;10.28;88.58;100530.19;5043249;28;20214;-74
2022/04/11 09:10:32;;;;;;;0.10;0.10;;;10.50;99.90;;;10.45;86.41;100504.84;5040485;28;20203;-74
2022/04/11 09:13:03;;;;;;;0.10;0.10;;;10.70;99.90;;;10.89;83.83;100504.38;5039696;28;20208;-74
2022/04/11 09:15:47;;;;;;;0.40;0.40;;;10.60;99.90;;;10.79;82.39;100447.88;5022239;28;20211;-74
2022/04/11 09:18:16;;;;;;;0.17;0.17;;;;;;;10.31;79.52;100337.25;5043588;28;20253;-75
2022/04/11 09:20:44;;;;;;;0.10;0.10;;;;;;;10.76;79.74;100397.59;5033287;28;20230;-77
2022/04/11 09:23:23;;;;;;;0.10;0.10;;;10.70;99.90;;;10.66;78.34;100348.16;5018776;28;20205;-74
2022/04/11 09:25:51;;;;;;;0.10;0.10;;;;;;;11.13;79.93;100400.47;5042957;28;20207;-76
2022/04/11 09:28:20;;;;;;;0.10;0.10;;;11.10;99.90;;;11.04;79.40;100382.78;5025242;28;20234;-74
2022/04/11 09:30:49;;;;;;;0.20;0.20;;;;;;;11.06;78.24;100343.09;5040961;28;20206;-75
2022/04/11 09:33:17;;;;;;;0.10;0.10;;;11.50;99.90;;;11.83;78.07;100409.72;5043966;28;20213;-74
2022/04/11 09:35:47;;;;;;;0.10;0.10;;;11.70;99.90;;;11.54;76.58;100323.91;5043145;28;20581;-74
2022/04/11 09:38:16;;;;;;;0.10;0.10;;;11.70;99.90;;;11.24;76.64;100287.59;5037292;28;20717;-76
2022/04/11 09:40:50;;;;;;;0.10;0.10;;;11.60;99.90;;;11.67;78.35;100351.31;5024830;28;20599;-75
2022/04/11 09:43:32;;;;;;;0.10;0.10;;;11.90;99.90;;;11.96;77.43;100357.63;5039930;28;20207;-74
2022/04/11 09:46:03;;;;;;;0.10;0.10;;;11.90;99.90;;;11.70;76.11;100290.41;5023216;28;20211;-74
2022/04/11 09:48:35;;;;;;;0.10;0.10;;;12.00;99.90;;;11.76;74.88;100283.38;5049012;28;20222;-74
2022/04/11 09:51:10;;;;;;;0.10;0.10;;;12.10;99.90;;;11.98;74.98;100286.09;5044188;28;20321;-74
2022/04/11 09:53:38;;;;;;;0.10;0.10;;;12.20;99.90;;;12.27;73.60;100281.69;5035850;28;20577;-74
2022/04/11 09:56:08;;;;;;;0.10;0.10;;;12.30;99.90;;;11.93;71.79;100187.16;5032010;28;20206;-74
2022/04/11 09:58:39;;;;;;;0.10;0.10;;;12.20;99.90;;;11.78;71.31;100153.59;5035786;28;20234;-74
2022/04/11 10:01:08;;;;;;;0.10;0.10;;;;;;;11.90;71.54;100164.19;5044126;28;20230;-75
2022/04/11 10:03:37;;;;;;;0.10;0.10;;;;;;;12.13;70.52;100190.66;5047258;28;20199;-75
2022/04/11 10:06:06;;;;;;;0.10;0.10;;;12.50;99.90;;;12.56;71.11;100228.59;5013506;28;20199;-74
2022/04/11 10:08:35;;;;;;;0.10;0.10;;;12.90;99.90;;;13.25;68.65;100241.69;5039045;28;20238;-75
2022/04/11 10:11:04;;;;;;;0.10;0.10;;;;;;;12.85;69.69;100172.78;5013915;28;20203;-75
2022/04/11 10:13:36;;;;;;;0.10;0.10;;;13.00;99.90;;;12.85;69.55;100153.31;5018963;28;20222;-74
2022/04/11 10:16:06;;;;;;;0.10;0.10;;;13.10;99.90;;;13.02;69.23;100170.97;5036627;28;20207;-80
2022/04/11 10:18:35;;;;;;;0.10;0.10;;;;;;;12.70;67.28;100066.72;5037515;28;20223;-75
2022/04/11 10:21:05;;;;;;;0.10;0.10;;;13.20;99.90;;;12.78;67.40;100067.56;5021144;28;20227;-74
2022/04/11 10:24:05;;;;;;;0.00;0.00;;;13.30;99.90;;;13.10;68.22;100112.50;5039276;28;20211;-74
2022/04/11 10:26:44;;;;;;;0.00;0.00;;;13.60;99.90;;;13.50;66.97;100120.22;5047336;28;20202;-75
2022/04/11 10:29:37;;;;;;;0.00;0.00;;;13.60;99.90;;;13.19;66.60;100053.19;5024199;28;20242;-73
2022/04/11 10:32:13;;;;;;;0.10;0.10;;;13.60;99.90;;;13.31;65.15;100011.47;5038453;28;20203;-74
2022/04/11 10:35:08;;;;;;;0.10;0.10;;;13.90;99.90;;;13.94;65.78;100106.53;5045214;28;20659;-75
2022/04/11 10:37:39;;;;;;;0.10;0.10;;;14.20;99.90;;;13.88;64.27;100035.72;5021562;28;20215;-74
2022/04/11 10:40:16;;;;;;;0.10;0.10;;;14.20;99.90;;;13.95;63.69;100001.97;5040690;28;20202;-76
2022/04/11 10:43:04;;;;;;;0.45;0.45;;;14.00;99.90;;;13.16;61.42;99830.16;5041329;28;20237;-74
2022/04/11 10:45:35;;;;;;;0.10;0.10;;;13.70;99.90;;;13.43;62.94;99888.31;5046485;28;20211;-74
2022/04/11 10:48:05;;;;;;;0.10;0.10;;;14.30;99.90;;;14.52;65.81;100104.19;5045534;28;20222;-76
2022/04/11 10:50:34;;;;;;;0.20;0.20;;;;;;;15.03;63.43;100102.59;5036937;28;20203;-78